Rock Grove, Illinois
Current Conditions -  °F | °C
As of 9:35 PM on Friday 28 Nov 2014 (Local Time) from KFEP Reporting Station
Clear Clear  
Wind Chill: 27°   Ceiling: Unl
Heat Index: 31°   Visibility: 7mi
Dew Point: 29°   Wind: 5mph
Humidity: 90%   Direction: 90°E
Pressure: 29.87"   Gusts: NA
Location:  42.4147°N, 89.4715°W
Report Text: KFEP 290335Z AUTO 09004KT 7SM CLR 00/M02 A2987 RMK AO2 T10031017
Loading
Personal Weather Stations






























Interactive Weather Map New forecast layout! Learn more

10-Day Weather Forecast

Advertisements
Track Severe Weather on mobile